This is the latest recevied weather packets stored in our database for station/object W4KBW. If no packets are shown the sender has not sent any weather packets the latest 10 day(s).
| Time | Temp. | Humidity | Pressure | Rain* | Wind** | Luminosity | Snow |
|---|---|---|---|---|---|---|---|
| 1777830502 | 26.11° C | 100% | 1016.6 hPa | 0 mm | - | - | - |
| 1777829602 | 25.56° C | 100% | 1016.8 hPa | 0 mm | - | - | - |
| 1777828953 | 25.56° C | 100% | 1016.9 hPa | 0 mm | - | - | - |
| 1777828672 | 25.56° C | 100% | 1016.9 hPa | 0 mm | - | - | - |
| 1777828090 | 25° C | 100% | 1017 hPa | 0 mm | - | - | - |
| 1777827742 | 25° C | 100% | 1017 hPa | 0 mm | - | - | - |
| 1777827065 | 25.56° C | 100% | 1017 hPa | 0 mm | - | - | - |
| 1777826842 | 25.56° C | 100% | 1017 hPa | 0 mm | - | - | - |
| 1777826201 | 25.56° C | 100% | 1017 hPa | 0 mm | - | - | - |
| 1777825912 | 25.56° C | 100% | 1017 hPa | 0 mm | - | - | - |
| 1777825297 | 23.89° C | 100% | 1017.3 hPa | 0 mm | - | - | - |
| 1777825012 | 23.89° C | 100% | 1017.3 hPa | 0 mm | - | - | - |
| 1777824082 | 23.89° C | 100% | 1017.3 hPa | 0 mm | - | - | - |
| 1777823405 | 22.78° C | 100% | 1017.4 hPa | 0 mm | - | - | - |
| 1777823152 | 22.78° C | 100% | 1017.4 hPa | 0 mm | - | - | - |
| 1777822384 | 21.67° C | 100% | 1017.4 hPa | 0 mm | - | - | - |
| 1777822222 | 21.67° C | 100% | 1017.4 hPa | 0 mm | - | - | - |
| 1777821322 | 21.67° C | 100% | 1017.2 hPa | 0 mm | - | - | - |
| 1777820625 | 21.67° C | 100% | 1017 hPa | 0 mm | - | - | - |
| 1777820422 | 21.67° C | 100% | 1017 hPa | 0 mm | - | - | - |
| 1777819815 | 21.11° C | 100% | 1016.9 hPa | 0 mm | - | - | - |
| 1777819522 | 21.11° C | 100% | 1016.9 hPa | 0 mm | - | - | - |
| 1777818823 | 21.67° C | 100% | 1016.4 hPa | 0 mm | - | - | - |
| 1777818622 | 21.67° C | 100% | 1016.4 hPa | 0 mm | - | - | - |
| 1777817722 | 21.11° C | 100% | 1016.4 hPa | 0 mm | - | - | - |
* Rain latest hour (hover to see other rain measurements)
** Current wind speed in m/s (hover to see current wind gust speed)